sensor_id;sensor_type;location;lat;lon;timestamp;P1;durP1;ratioP1;P2;durP2;ratioP2
46731;SDS011;32477;51.474;5.696;2022-12-16T00:01:02;78.32;;;30.50;;
46731;SDS011;32477;51.474;5.696;2022-12-16T00:03:39;73.20;;;29.63;;
46731;SDS011;32477;51.474;5.696;2022-12-16T00:06:06;74.10;;;29.75;;
46731;SDS011;32477;51.474;5.696;2022-12-16T00:08:35;63.60;;;28.65;;
46731;SDS011;32477;51.474;5.696;2022-12-16T00:11:03;59.92;;;28.58;;
46731;SDS011;32477;51.474;5.696;2022-12-16T00:13:30;66.47;;;27.80;;
46731;SDS011;32477;51.474;5.696;2022-12-16T00:15:57;58.55;;;27.88;;
46731;SDS011;32477;51.474;5.696;2022-12-16T00:18:26;64.28;;;27.15;;
46731;SDS011;32477;51.474;5.696;2022-12-16T00:20:52;58.67;;;27.42;;
46731;SDS011;32477;51.474;5.696;2022-12-16T00:23:19;62.10;;;27.05;;
46731;SDS011;32477;51.474;5.696;2022-12-16T00:25:45;68.80;;;28.52;;
46731;SDS011;32477;51.474;5.696;2022-12-16T00:28:12;60.38;;;26.90;;
46731;SDS011;32477;51.474;5.696;2022-12-16T00:30:40;57.65;;;26.25;;
46731;SDS011;32477;51.474;5.696;2022-12-16T00:33:06;58.75;;;27.52;;
46731;SDS011;32477;51.474;5.696;2022-12-16T00:35:32;64.75;;;26.95;;
46731;SDS011;32477;51.474;5.696;2022-12-16T00:37:58;65.22;;;28.13;;
46731;SDS011;32477;51.474;5.696;2022-12-16T00:40:23;55.20;;;26.77;;
46731;SDS011;32477;51.474;5.696;2022-12-16T00:42:50;56.00;;;26.17;;
46731;SDS011;32477;51.474;5.696;2022-12-16T00:45:16;58.97;;;26.42;;
46731;SDS011;32477;51.474;5.696;2022-12-16T00:47:42;53.85;;;25.88;;
46731;SDS011;32477;51.474;5.696;2022-12-16T00:50:07;57.65;;;25.90;;
46731;SDS011;32477;51.474;5.696;2022-12-16T00:52:35;59.85;;;26.80;;
46731;SDS011;32477;51.474;5.696;2022-12-16T00:55:00;59.65;;;25.73;;
46731;SDS011;32477;51.474;5.696;2022-12-16T00:57:26;54.92;;;23.55;;
46731;SDS011;32477;51.474;5.696;2022-12-16T00:59:52;57.47;;;25.92;;
46731;SDS011;32477;51.474;5.696;2022-12-16T01:02:18;57.28;;;25.90;;
46731;SDS011;32477;51.474;5.696;2022-12-16T01:04:43;56.42;;;26.33;;
46731;SDS011;32477;51.474;5.696;2022-12-16T01:07:09;64.97;;;26.65;;
46731;SDS011;32477;51.474;5.696;2022-12-16T01:09:35;55.55;;;24.77;;
46731;SDS011;32477;51.474;5.696;2022-12-16T01:12:01;51.22;;;26.50;;
46731;SDS011;32477;51.474;5.696;2022-12-16T01:14:26;52.00;;;24.98;;
46731;SDS011;32477;51.474;5.696;2022-12-16T01:16:52;76.43;;;26.08;;
46731;SDS011;32477;51.474;5.696;2022-12-16T01:19:17;58.58;;;26.42;;
46731;SDS011;32477;51.474;5.696;2022-12-16T01:21:43;60.72;;;26.38;;
46731;SDS011;32477;51.474;5.696;2022-12-16T01:24:09;55.95;;;24.35;;
46731;SDS011;32477;51.474;5.696;2022-12-16T01:26:35;50.65;;;25.27;;
46731;SDS011;32477;51.474;5.696;2022-12-16T01:29:01;55.45;;;24.52;;
46731;SDS011;32477;51.474;5.696;2022-12-16T01:31:27;53.20;;;25.63;;
46731;SDS011;32477;51.474;5.696;2022-12-16T01:33:52;54.50;;;25.83;;
46731;SDS011;32477;51.474;5.696;2022-12-16T01:36:18;58.85;;;25.85;;
46731;SDS011;32477;51.474;5.696;2022-12-16T01:38:44;53.58;;;25.05;;
46731;SDS011;32477;51.474;5.696;2022-12-16T01:41:11;65.35;;;28.05;;
46731;SDS011;32477;51.474;5.696;2022-12-16T01:43:39;75.57;;;26.70;;
46731;SDS011;32477;51.474;5.696;2022-12-16T01:46:07;60.03;;;26.00;;
46731;SDS011;32477;51.474;5.696;2022-12-16T01:53:52;63.53;;;27.65;;
46731;SDS011;32477;51.474;5.696;2022-12-16T01:56:21;64.18;;;28.38;;
46731;SDS011;32477;51.474;5.696;2022-12-16T01:58:49;50.08;;;24.30;;
46731;SDS011;32477;51.474;5.696;2022-12-16T02:01:16;57.22;;;27.63;;
46731;SDS011;32477;51.474;5.696;2022-12-16T02:03:42;65.35;;;27.25;;
46731;SDS011;32477;51.474;5.696;2022-12-16T02:06:08;65.15;;;27.10;;
46731;SDS011;32477;51.474;5.696;2022-12-16T02:08:34;53.30;;;27.00;;
46731;SDS011;32477;51.474;5.696;2022-12-16T02:11:08;58.65;;;28.25;;
46731;SDS011;32477;51.474;5.696;2022-12-16T02:14:02;70.55;;;27.73;;
46731;SDS011;32477;51.474;5.696;2022-12-16T02:42:59;64.30;;;30.08;;
46731;SDS011;32477;51.474;5.696;2022-12-16T02:45:46;69.32;;;29.65;;
46731;SDS011;32477;51.474;5.696;2022-12-16T02:48:14;66.30;;;30.00;;
46731;SDS011;32477;51.474;5.696;2022-12-16T02:50:44;62.72;;;31.80;;
46731;SDS011;32477;51.474;5.696;2022-12-16T02:53:13;61.53;;;31.13;;
46731;SDS011;32477;51.474;5.696;2022-12-16T02:58:36;72.43;;;32.10;;
46731;SDS011;32477;51.474;5.696;2022-12-16T03:03:55;65.53;;;31.50;;
46731;SDS011;32477;51.474;5.696;2022-12-16T03:06:35;65.18;;;31.38;;
46731;SDS011;32477;51.474;5.696;2022-12-16T03:09:05;70.82;;;31.67;;
46731;SDS011;32477;51.474;5.696;2022-12-16T03:11:33;63.95;;;31.55;;
46731;SDS011;32477;51.474;5.696;2022-12-16T03:14:00;78.22;;;32.60;;
46731;SDS011;32477;51.474;5.696;2022-12-16T03:16:30;71.63;;;31.40;;
46731;SDS011;32477;51.474;5.696;2022-12-16T03:18:59;80.07;;;31.10;;
46731;SDS011;32477;51.474;5.696;2022-12-16T03:21:29;71.60;;;32.22;;
46731;SDS011;32477;51.474;5.696;2022-12-16T03:24:01;66.85;;;32.38;;
46731;SDS011;32477;51.474;5.696;2022-12-16T03:26:35;69.50;;;32.20;;
46731;SDS011;32477;51.474;5.696;2022-12-16T03:29:16;74.60;;;34.63;;
46731;SDS011;32477;51.474;5.696;2022-12-16T03:31:48;67.50;;;32.90;;
46731;SDS011;32477;51.474;5.696;2022-12-16T03:37:08;77.30;;;31.83;;
46731;SDS011;32477;51.474;5.696;2022-12-16T03:39:43;66.00;;;31.58;;
46731;SDS011;32477;51.474;5.696;2022-12-16T03:42:13;73.75;;;33.38;;
46731;SDS011;32477;51.474;5.696;2022-12-16T03:44:41;80.25;;;34.88;;
46731;SDS011;32477;51.474;5.696;2022-12-16T03:47:08;72.40;;;32.78;;
46731;SDS011;32477;51.474;5.696;2022-12-16T03:49:35;67.13;;;33.20;;
46731;SDS011;32477;51.474;5.696;2022-12-16T03:52:00;78.22;;;34.30;;
46731;SDS011;32477;51.474;5.696;2022-12-16T03:54:26;71.47;;;33.08;;
46731;SDS011;32477;51.474;5.696;2022-12-16T03:56:52;69.90;;;32.95;;
46731;SDS011;32477;51.474;5.696;2022-12-16T03:59:18;72.47;;;34.20;;
46731;SDS011;32477;51.474;5.696;2022-12-16T04:01:44;69.05;;;32.47;;
46731;SDS011;32477;51.474;5.696;2022-12-16T04:04:09;68.53;;;32.58;;
46731;SDS011;32477;51.474;5.696;2022-12-16T04:06:35;74.13;;;33.65;;
46731;SDS011;32477;51.474;5.696;2022-12-16T04:09:01;72.13;;;33.78;;
46731;SDS011;32477;51.474;5.696;2022-12-16T04:11:27;74.75;;;33.38;;
46731;SDS011;32477;51.474;5.696;2022-12-16T04:14:11;72.22;;;33.03;;
46731;SDS011;32477;51.474;5.696;2022-12-16T04:16:55;70.38;;;34.10;;
46731;SDS011;32477;51.474;5.696;2022-12-16T04:19:40;75.57;;;35.40;;
46731;SDS011;32477;51.474;5.696;2022-12-16T04:22:40;78.15;;;34.03;;
46731;SDS011;32477;51.474;5.696;2022-12-16T04:25:32;70.72;;;32.53;;
46731;SDS011;32477;51.474;5.696;2022-12-16T04:28:00;76.07;;;32.47;;
46731;SDS011;32477;51.474;5.696;2022-12-16T04:30:26;77.65;;;34.80;;
46731;SDS011;32477;51.474;5.696;2022-12-16T04:32:55;84.90;;;36.15;;
46731;SDS011;32477;51.474;5.696;2022-12-16T04:35:42;73.88;;;33.17;;
46731;SDS011;32477;51.474;5.696;2022-12-16T04:41:11;56.83;;;23.60;;
46731;SDS011;32477;51.474;5.696;2022-12-16T04:43:55;67.35;;;34.33;;
46731;SDS011;32477;51.474;5.696;2022-12-16T04:46:39;74.18;;;33.15;;
46731;SDS011;32477;51.474;5.696;2022-12-16T04:49:23;73.28;;;34.60;;
46731;SDS011;32477;51.474;5.696;2022-12-16T04:52:07;71.70;;;34.42;;
46731;SDS011;32477;51.474;5.696;2022-12-16T04:57:36;67.95;;;30.83;;
46731;SDS011;32477;51.474;5.696;2022-12-16T05:00:34;70.60;;;32.65;;
46731;SDS011;32477;51.474;5.696;2022-12-16T05:03:18;76.53;;;34.78;;
46731;SDS011;32477;51.474;5.696;2022-12-16T05:06:03;80.18;;;34.92;;
46731;SDS011;32477;51.474;5.696;2022-12-16T05:08:47;77.72;;;35.70;;
46731;SDS011;32477;51.474;5.696;2022-12-16T05:11:31;71.65;;;34.95;;
46731;SDS011;32477;51.474;5.696;2022-12-16T05:14:15;78.43;;;34.50;;
46731;SDS011;32477;51.474;5.696;2022-12-16T05:16:59;83.28;;;36.45;;
46731;SDS011;32477;51.474;5.696;2022-12-16T05:19:43;80.15;;;36.35;;
46731;SDS011;32477;51.474;5.696;2022-12-16T05:22:27;79.90;;;33.88;;
46731;SDS011;32477;51.474;5.696;2022-12-16T05:25:11;72.20;;;34.13;;
46731;SDS011;32477;51.474;5.696;2022-12-16T05:27:55;73.70;;;33.25;;
46731;SDS011;32477;51.474;5.696;2022-12-16T05:30:39;68.57;;;34.42;;
46731;SDS011;32477;51.474;5.696;2022-12-16T05:33:23;84.55;;;35.72;;
46731;SDS011;32477;51.474;5.696;2022-12-16T05:36:08;82.88;;;36.45;;
46731;SDS011;32477;51.474;5.696;2022-12-16T05:38:52;78.05;;;34.22;;
46731;SDS011;32477;51.474;5.696;2022-12-16T05:41:36;86.70;;;36.38;;
46731;SDS011;32477;51.474;5.696;2022-12-16T05:44:21;73.80;;;35.63;;
46731;SDS011;32477;51.474;5.696;2022-12-16T05:47:05;83.90;;;36.03;;
46731;SDS011;32477;51.474;5.696;2022-12-16T05:49:52;73.45;;;35.03;;
46731;SDS011;32477;51.474;5.696;2022-12-16T05:52:36;92.70;;;35.25;;
46731;SDS011;32477;51.474;5.696;2022-12-16T05:55:20;83.75;;;37.08;;
46731;SDS011;32477;51.474;5.696;2022-12-16T06:00:49;85.75;;;36.10;;
46731;SDS011;32477;51.474;5.696;2022-12-16T06:03:33;87.57;;;37.83;;
46731;SDS011;32477;51.474;5.696;2022-12-16T06:06:17;75.95;;;37.05;;
46731;SDS011;32477;51.474;5.696;2022-12-16T06:09:01;94.38;;;38.03;;
46731;SDS011;32477;51.474;5.696;2022-12-16T06:11:46;96.38;;;38.33;;
46731;SDS011;32477;51.474;5.696;2022-12-16T06:14:30;97.43;;;36.45;;
46731;SDS011;32477;51.474;5.696;2022-12-16T06:17:14;98.43;;;38.53;;
46731;SDS011;32477;51.474;5.696;2022-12-16T06:19:58;95.30;;;34.83;;
46731;SDS011;32477;51.474;5.696;2022-12-16T06:22:52;89.68;;;39.58;;
46731;SDS011;32477;51.474;5.696;2022-12-16T06:25:37;87.68;;;36.63;;
46731;SDS011;32477;51.474;5.696;2022-12-16T06:28:22;115.40;;;40.13;;
46731;SDS011;32477;51.474;5.696;2022-12-16T06:31:06;104.22;;;39.92;;
46731;SDS011;32477;51.474;5.696;2022-12-16T06:33:51;106.40;;;39.42;;
46731;SDS011;32477;51.474;5.696;2022-12-16T06:39:20;131.23;;;39.63;;
46731;SDS011;32477;51.474;5.696;2022-12-16T06:42:04;115.68;;;40.00;;
46731;SDS011;32477;51.474;5.696;2022-12-16T06:44:48;127.20;;;41.17;;
46731;SDS011;32477;51.474;5.696;2022-12-16T06:47:32;117.53;;;42.55;;
46731;SDS011;32477;51.474;5.696;2022-12-16T06:50:17;106.65;;;40.00;;
46731;SDS011;32477;51.474;5.696;2022-12-16T06:53:01;121.80;;;40.85;;
46731;SDS011;32477;51.474;5.696;2022-12-16T06:55:45;132.23;;;42.53;;
46731;SDS011;32477;51.474;5.696;2022-12-16T06:58:29;146.02;;;42.25;;
46731;SDS011;32477;51.474;5.696;2022-12-16T07:01:13;119.85;;;40.38;;
46731;SDS011;32477;51.474;5.696;2022-12-16T07:03:57;138.25;;;43.88;;
46731;SDS011;32477;51.474;5.696;2022-12-16T07:06:41;127.68;;;42.28;;
46731;SDS011;32477;51.474;5.696;2022-12-16T07:09:25;129.25;;;40.67;;
46731;SDS011;32477;51.474;5.696;2022-12-16T07:12:09;138.25;;;39.35;;
46731;SDS011;32477;51.474;5.696;2022-12-16T07:14:53;141.35;;;43.83;;
46731;SDS011;32477;51.474;5.696;2022-12-16T07:17:38;137.10;;;42.33;;
46731;SDS011;32477;51.474;5.696;2022-12-16T07:20:22;125.13;;;42.50;;
46731;SDS011;32477;51.474;5.696;2022-12-16T07:23:07;130.57;;;43.65;;
46731;SDS011;32477;51.474;5.696;2022-12-16T07:25:51;123.78;;;42.30;;
46731;SDS011;32477;51.474;5.696;2022-12-16T07:28:35;118.10;;;40.33;;
46731;SDS011;32477;51.474;5.696;2022-12-16T07:31:19;111.38;;;39.72;;
46731;SDS011;32477;51.474;5.696;2022-12-16T07:34:03;121.72;;;39.22;;
46731;SDS011;32477;51.474;5.696;2022-12-16T07:36:47;121.13;;;41.20;;
46731;SDS011;32477;51.474;5.696;2022-12-16T07:39:31;111.63;;;39.63;;
46731;SDS011;32477;51.474;5.696;2022-12-16T07:42:15;104.40;;;39.08;;
46731;SDS011;32477;51.474;5.696;2022-12-16T07:44:59;101.53;;;40.40;;
46731;SDS011;32477;51.474;5.696;2022-12-16T07:47:47;108.43;;;39.20;;
46731;SDS011;32477;51.474;5.696;2022-12-16T07:50:32;105.90;;;40.00;;
46731;SDS011;32477;51.474;5.696;2022-12-16T07:53:16;133.07;;;42.40;;
46731;SDS011;32477;51.474;5.696;2022-12-16T07:56:00;119.88;;;41.67;;
46731;SDS011;32477;51.474;5.696;2022-12-16T07:58:44;120.45;;;41.17;;
46731;SDS011;32477;51.474;5.696;2022-12-16T08:01:28;116.30;;;42.85;;
46731;SDS011;32477;51.474;5.696;2022-12-16T08:04:13;125.75;;;40.58;;
46731;SDS011;32477;51.474;5.696;2022-12-16T08:06:58;101.57;;;39.90;;
46731;SDS011;32477;51.474;5.696;2022-12-16T08:09:42;119.93;;;43.63;;
46731;SDS011;32477;51.474;5.696;2022-12-16T08:12:25;118.20;;;39.88;;
46731;SDS011;32477;51.474;5.696;2022-12-16T08:15:10;103.38;;;39.08;;
46731;SDS011;32477;51.474;5.696;2022-12-16T08:17:54;106.20;;;39.88;;
46731;SDS011;32477;51.474;5.696;2022-12-16T08:20:38;117.25;;;39.28;;
46731;SDS011;32477;51.474;5.696;2022-12-16T08:23:22;93.63;;;39.50;;
46731;SDS011;32477;51.474;5.696;2022-12-16T08:26:06;107.70;;;42.47;;
46731;SDS011;32477;51.474;5.696;2022-12-16T08:28:50;104.22;;;40.50;;
46731;SDS011;32477;51.474;5.696;2022-12-16T08:31:34;116.80;;;40.75;;
46731;SDS011;32477;51.474;5.696;2022-12-16T08:34:19;117.40;;;42.47;;
46731;SDS011;32477;51.474;5.696;2022-12-16T08:37:03;124.07;;;40.95;;
46731;SDS011;32477;51.474;5.696;2022-12-16T08:42:32;108.65;;;38.88;;
46731;SDS011;32477;51.474;5.696;2022-12-16T08:45:16;111.32;;;40.55;;
46731;SDS011;32477;51.474;5.696;2022-12-16T08:48:00;110.03;;;38.55;;
46731;SDS011;32477;51.474;5.696;2022-12-16T08:50:44;121.35;;;38.55;;
46731;SDS011;32477;51.474;5.696;2022-12-16T08:53:29;120.10;;;39.00;;
46731;SDS011;32477;51.474;5.696;2022-12-16T08:58:57;114.07;;;35.83;;
46731;SDS011;32477;51.474;5.696;2022-12-16T09:01:42;107.40;;;38.90;;
46731;SDS011;32477;51.474;5.696;2022-12-16T09:04:26;95.30;;;36.58;;
46731;SDS011;32477;51.474;5.696;2022-12-16T09:07:10;104.63;;;37.67;;
46731;SDS011;32477;51.474;5.696;2022-12-16T09:09:54;89.35;;;36.95;;
46731;SDS011;32477;51.474;5.696;2022-12-16T09:12:38;105.95;;;36.30;;
46731;SDS011;32477;51.474;5.696;2022-12-16T09:15:22;121.35;;;38.40;;
46731;SDS011;32477;51.474;5.696;2022-12-16T09:18:09;99.20;;;37.20;;
46731;SDS011;32477;51.474;5.696;2022-12-16T09:20:53;99.97;;;34.85;;
46731;SDS011;32477;51.474;5.696;2022-12-16T09:23:37;95.78;;;36.00;;
46731;SDS011;32477;51.474;5.696;2022-12-16T09:26:21;86.50;;;33.55;;
46731;SDS011;32477;51.474;5.696;2022-12-16T09:29:05;91.18;;;34.83;;
46731;SDS011;32477;51.474;5.696;2022-12-16T09:31:49;112.78;;;36.78;;
46731;SDS011;32477;51.474;5.696;2022-12-16T09:34:33;89.82;;;35.00;;
46731;SDS011;32477;51.474;5.696;2022-12-16T09:37:17;108.03;;;37.63;;
46731;SDS011;32477;51.474;5.696;2022-12-16T09:40:01;120.20;;;36.20;;
46731;SDS011;32477;51.474;5.696;2022-12-16T09:42:51;116.22;;;34.65;;
46731;SDS011;32477;51.474;5.696;2022-12-16T09:48:45;93.40;;;36.22;;
46731;SDS011;32477;51.474;5.696;2022-12-16T09:51:41;111.93;;;33.25;;
46731;SDS011;32477;51.474;5.696;2022-12-16T09:54:28;100.18;;;34.85;;
46731;SDS011;32477;51.474;5.696;2022-12-16T09:57:17;90.40;;;34.00;;
46731;SDS011;32477;51.474;5.696;2022-12-16T10:00:06;94.05;;;33.97;;
46731;SDS011;32477;51.474;5.696;2022-12-16T10:03:07;85.40;;;32.53;;
46731;SDS011;32477;51.474;5.696;2022-12-16T10:06:20;81.68;;;32.72;;
46731;SDS011;32477;51.474;5.696;2022-12-16T10:09:28;74.55;;;30.30;;
46731;SDS011;32477;51.474;5.696;2022-12-16T10:15:13;70.45;;;30.58;;
46731;SDS011;32477;51.474;5.696;2022-12-16T10:19:06;67.47;;;30.45;;
46731;SDS011;32477;51.474;5.696;2022-12-16T10:21:42;62.45;;;29.33;;
46731;SDS011;32477;51.474;5.696;2022-12-16T10:27:44;71.07;;;31.90;;
46731;SDS011;32477;51.474;5.696;2022-12-16T10:30:35;69.50;;;31.15;;
46731;SDS011;32477;51.474;5.696;2022-12-16T10:33:21;69.22;;;31.13;;
46731;SDS011;32477;51.474;5.696;2022-12-16T10:36:12;64.90;;;30.60;;
46731;SDS011;32477;51.474;5.696;2022-12-16T10:39:01;70.80;;;31.35;;
46731;SDS011;32477;51.474;5.696;2022-12-16T10:41:53;71.35;;;31.30;;
46731;SDS011;32477;51.474;5.696;2022-12-16T10:44:49;68.60;;;30.33;;
46731;SDS011;32477;51.474;5.696;2022-12-16T10:47:37;64.32;;;29.63;;
46731;SDS011;32477;51.474;5.696;2022-12-16T10:50:21;68.97;;;30.48;;
46731;SDS011;32477;51.474;5.696;2022-12-16T10:53:15;65.60;;;31.25;;
46731;SDS011;32477;51.474;5.696;2022-12-16T10:59:21;68.28;;;29.90;;
46731;SDS011;32477;51.474;5.696;2022-12-16T11:02:19;65.88;;;31.35;;
46731;SDS011;32477;51.474;5.696;2022-12-16T11:08:27;69.53;;;30.63;;
46731;SDS011;32477;51.474;5.696;2022-12-16T11:11:23;63.25;;;29.13;;
46731;SDS011;32477;51.474;5.696;2022-12-16T11:31:49;60.60;;;26.85;;
46731;SDS011;32477;51.474;5.696;2022-12-16T11:34:37;56.00;;;27.02;;
46731;SDS011;32477;51.474;5.696;2022-12-16T11:40:11;54.72;;;26.88;;
46731;SDS011;32477;51.474;5.696;2022-12-16T11:42:57;58.35;;;27.13;;
46731;SDS011;32477;51.474;5.696;2022-12-16T11:45:44;60.45;;;28.30;;
46731;SDS011;32477;51.474;5.696;2022-12-16T11:51:20;58.17;;;29.00;;
46731;SDS011;32477;51.474;5.696;2022-12-16T11:54:17;58.10;;;27.00;;
46731;SDS011;32477;51.474;5.696;2022-12-16T11:57:16;63.65;;;28.20;;
46731;SDS011;32477;51.474;5.696;2022-12-16T12:00:03;60.92;;;27.13;;
46731;SDS011;32477;51.474;5.696;2022-12-16T12:15:57;44.03;;;22.42;;
46731;SDS011;32477;51.474;5.696;2022-12-16T12:18:47;44.00;;;23.65;;
46731;SDS011;32477;51.474;5.696;2022-12-16T12:21:45;43.75;;;23.67;;
46731;SDS011;32477;51.474;5.696;2022-12-16T12:24:44;46.10;;;24.80;;
46731;SDS011;32477;51.474;5.696;2022-12-16T12:27:54;41.40;;;21.52;;
46731;SDS011;32477;51.474;5.696;2022-12-16T12:30:55;37.97;;;21.38;;
46731;SDS011;32477;51.474;5.696;2022-12-16T12:36:37;25.73;;;15.40;;
46731;SDS011;32477;51.474;5.696;2022-12-16T12:40:13;26.35;;;15.55;;
46731;SDS011;32477;51.474;5.696;2022-12-16T12:42:59;26.45;;;15.05;;
46731;SDS011;32477;51.474;5.696;2022-12-16T12:46:00;25.27;;;14.20;;
46731;SDS011;32477;51.474;5.696;2022-12-16T12:48:58;25.50;;;15.13;;
46731;SDS011;32477;51.474;5.696;2022-12-16T12:52:03;25.05;;;15.00;;
46731;SDS011;32477;51.474;5.696;2022-12-16T12:57:47;26.92;;;15.15;;
46731;SDS011;32477;51.474;5.696;2022-12-16T13:00:35;26.42;;;14.90;;
46731;SDS011;32477;51.474;5.696;2022-12-16T13:03:32;26.33;;;14.88;;
46731;SDS011;32477;51.474;5.696;2022-12-16T13:06:44;22.83;;;14.20;;
46731;SDS011;32477;51.474;5.696;2022-12-16T13:09:33;27.27;;;15.77;;
46731;SDS011;32477;51.474;5.696;2022-12-16T13:12:22;25.20;;;13.05;;
46731;SDS011;32477;51.474;5.696;2022-12-16T13:15:17;25.27;;;13.75;;
46731;SDS011;32477;51.474;5.696;2022-12-16T13:18:23;28.75;;;14.95;;
46731;SDS011;32477;51.474;5.696;2022-12-16T13:27:13;31.38;;;15.23;;
46731;SDS011;32477;51.474;5.696;2022-12-16T13:30:23;32.83;;;17.45;;
46731;SDS011;32477;51.474;5.696;2022-12-16T13:33:20;31.70;;;16.15;;
46731;SDS011;32477;51.474;5.696;2022-12-16T13:36:24;31.15;;;16.00;;
46731;SDS011;32477;51.474;5.696;2022-12-16T13:39:26;32.42;;;17.98;;
46731;SDS011;32477;51.474;5.696;2022-12-16T13:48:33;45.05;;;18.60;;
46731;SDS011;32477;51.474;5.696;2022-12-16T13:54:22;34.40;;;17.33;;
46731;SDS011;32477;51.474;5.696;2022-12-16T13:57:19;41.22;;;18.00;;
46731;SDS011;32477;51.474;5.696;2022-12-16T14:00:15;34.38;;;18.60;;
46731;SDS011;32477;51.474;5.696;2022-12-16T14:03:09;39.78;;;19.35;;
46731;SDS011;32477;51.474;5.696;2022-12-16T14:05:58;37.33;;;18.90;;
46731;SDS011;32477;51.474;5.696;2022-12-16T14:08:46;39.35;;;19.35;;
46731;SDS011;32477;51.474;5.696;2022-12-16T14:14:58;37.95;;;18.33;;
46731;SDS011;32477;51.474;5.696;2022-12-16T14:17:52;41.47;;;19.38;;
46731;SDS011;32477;51.474;5.696;2022-12-16T14:20:50;32.80;;;18.08;;
46731;SDS011;32477;51.474;5.696;2022-12-16T14:23:42;38.28;;;17.70;;
46731;SDS011;32477;51.474;5.696;2022-12-16T14:26:30;37.15;;;19.00;;
46731;SDS011;32477;51.474;5.696;2022-12-16T14:29:22;40.03;;;20.35;;
46731;SDS011;32477;51.474;5.696;2022-12-16T14:35:39;48.70;;;21.92;;
46731;SDS011;32477;51.474;5.696;2022-12-16T14:43:56;47.45;;;20.77;;
46731;SDS011;32477;51.474;5.696;2022-12-16T14:46:41;44.88;;;20.85;;
46731;SDS011;32477;51.474;5.696;2022-12-16T14:49:26;51.63;;;19.80;;
46731;SDS011;32477;51.474;5.696;2022-12-16T14:58:24;47.17;;;21.95;;
46731;SDS011;32477;51.474;5.696;2022-12-16T15:01:20;44.10;;;21.33;;
46731;SDS011;32477;51.474;5.696;2022-12-16T15:04:12;47.25;;;21.45;;
46731;SDS011;32477;51.474;5.696;2022-12-16T15:06:59;53.93;;;24.37;;
46731;SDS011;32477;51.474;5.696;2022-12-16T15:09:49;45.85;;;22.33;;
46731;SDS011;32477;51.474;5.696;2022-12-16T15:12:38;50.28;;;24.13;;
46731;SDS011;32477;51.474;5.696;2022-12-16T15:15:32;52.47;;;23.02;;
46731;SDS011;32477;51.474;5.696;2022-12-16T15:18:44;53.05;;;23.33;;
46731;SDS011;32477;51.474;5.696;2022-12-16T15:21:32;46.55;;;23.02;;
46731;SDS011;32477;51.474;5.696;2022-12-16T15:24:18;47.03;;;22.92;;
46731;SDS011;32477;51.474;5.696;2022-12-16T15:27:12;57.55;;;23.00;;
46731;SDS011;32477;51.474;5.696;2022-12-16T15:29:56;43.33;;;21.80;;
46731;SDS011;32477;51.474;5.696;2022-12-16T15:32:41;45.78;;;23.55;;
46731;SDS011;32477;51.474;5.696;2022-12-16T15:35:37;47.35;;;24.25;;
46731;SDS011;32477;51.474;5.696;2022-12-16T15:41:13;56.13;;;24.65;;
46731;SDS011;32477;51.474;5.696;2022-12-16T15:44:12;53.22;;;24.77;;
46731;SDS011;32477;51.474;5.696;2022-12-16T15:47:01;51.30;;;24.10;;
46731;SDS011;32477;51.474;5.696;2022-12-16T15:49:45;53.85;;;24.15;;
46731;SDS011;32477;51.474;5.696;2022-12-16T15:52:32;56.78;;;24.52;;
46731;SDS011;32477;51.474;5.696;2022-12-16T15:58:14;52.10;;;26.02;;
46731;SDS011;32477;51.474;5.696;2022-12-16T16:01:03;53.30;;;23.80;;
46731;SDS011;32477;51.474;5.696;2022-12-16T16:03:49;52.00;;;25.23;;
46731;SDS011;32477;51.474;5.696;2022-12-16T16:06:35;49.05;;;24.80;;
46731;SDS011;32477;51.474;5.696;2022-12-16T16:09:24;50.95;;;24.20;;
46731;SDS011;32477;51.474;5.696;2022-12-16T16:12:13;55.70;;;24.83;;
46731;SDS011;32477;51.474;5.696;2022-12-16T16:14:59;53.42;;;24.60;;
46731;SDS011;32477;51.474;5.696;2022-12-16T16:20:37;54.60;;;25.40;;
46731;SDS011;32477;51.474;5.696;2022-12-16T16:23:21;51.60;;;24.95;;
46731;SDS011;32477;51.474;5.696;2022-12-16T16:26:05;56.53;;;24.10;;
46731;SDS011;32477;51.474;5.696;2022-12-16T16:28:51;57.28;;;25.10;;
46731;SDS011;32477;51.474;5.696;2022-12-16T16:31:35;57.35;;;26.98;;
46731;SDS011;32477;51.474;5.696;2022-12-16T16:34:19;54.25;;;26.25;;
46731;SDS011;32477;51.474;5.696;2022-12-16T16:37:07;47.30;;;25.58;;
46731;SDS011;32477;51.474;5.696;2022-12-16T16:39:56;57.55;;;25.50;;
46731;SDS011;32477;51.474;5.696;2022-12-16T16:42:41;65.65;;;25.45;;
46731;SDS011;32477;51.474;5.696;2022-12-16T16:45:25;55.53;;;27.20;;
46731;SDS011;32477;51.474;5.696;2022-12-16T16:48:10;52.47;;;27.33;;
46731;SDS011;32477;51.474;5.696;2022-12-16T16:50:55;65.63;;;29.38;;
46731;SDS011;32477;51.474;5.696;2022-12-16T16:53:41;73.35;;;31.23;;
46731;SDS011;32477;51.474;5.696;2022-12-16T16:59:11;66.90;;;30.38;;
46731;SDS011;32477;51.474;5.696;2022-12-16T17:04:40;60.70;;;29.83;;
46731;SDS011;32477;51.474;5.696;2022-12-16T17:07:24;67.00;;;31.63;;
46731;SDS011;32477;51.474;5.696;2022-12-16T17:10:08;71.72;;;33.10;;
46731;SDS011;32477;51.474;5.696;2022-12-16T17:12:53;77.35;;;33.28;;
46731;SDS011;32477;51.474;5.696;2022-12-16T17:15:37;68.72;;;33.22;;
46731;SDS011;32477;51.474;5.696;2022-12-16T17:18:22;75.35;;;32.35;;
46731;SDS011;32477;51.474;5.696;2022-12-16T17:23:51;71.95;;;32.55;;
46731;SDS011;32477;51.474;5.696;2022-12-16T17:26:39;67.30;;;32.47;;
46731;SDS011;32477;51.474;5.696;2022-12-16T17:29:24;70.50;;;32.53;;
46731;SDS011;32477;51.474;5.696;2022-12-16T17:34:53;107.68;;;42.33;;
46731;SDS011;32477;51.474;5.696;2022-12-16T17:37:38;84.32;;;36.85;;
46731;SDS011;32477;51.474;5.696;2022-12-16T17:40:22;94.05;;;39.72;;
46731;SDS011;32477;51.474;5.696;2022-12-16T17:43:06;78.97;;;33.88;;
46731;SDS011;32477;51.474;5.696;2022-12-16T17:48:49;68.53;;;32.10;;
46731;SDS011;32477;51.474;5.696;2022-12-16T17:51:34;67.97;;;31.88;;
46731;SDS011;32477;51.474;5.696;2022-12-16T17:54:19;80.53;;;32.25;;
46731;SDS011;32477;51.474;5.696;2022-12-16T17:57:03;66.32;;;31.77;;
46731;SDS011;32477;51.474;5.696;2022-12-16T17:59:47;66.40;;;33.80;;
46731;SDS011;32477;51.474;5.696;2022-12-16T18:02:31;81.93;;;33.08;;
46731;SDS011;32477;51.474;5.696;2022-12-16T18:05:15;72.35;;;33.60;;
46731;SDS011;32477;51.474;5.696;2022-12-16T18:10:44;74.30;;;33.25;;
46731;SDS011;32477;51.474;5.696;2022-12-16T18:13:28;75.28;;;35.20;;
46731;SDS011;32477;51.474;5.696;2022-12-16T18:16:12;77.20;;;33.58;;
46731;SDS011;32477;51.474;5.696;2022-12-16T18:18:56;83.25;;;35.42;;
46731;SDS011;32477;51.474;5.696;2022-12-16T18:21:40;80.40;;;34.22;;
46731;SDS011;32477;51.474;5.696;2022-12-16T18:24:24;75.80;;;35.17;;
46731;SDS011;32477;51.474;5.696;2022-12-16T18:27:08;78.70;;;32.65;;
46731;SDS011;32477;51.474;5.696;2022-12-16T18:29:52;70.93;;;33.47;;
46731;SDS011;32477;51.474;5.696;2022-12-16T18:32:36;71.97;;;35.10;;
46731;SDS011;32477;51.474;5.696;2022-12-16T18:35:20;75.07;;;34.30;;
46731;SDS011;32477;51.474;5.696;2022-12-16T18:38:04;73.13;;;34.03;;
46731;SDS011;32477;51.474;5.696;2022-12-16T18:40:48;80.15;;;34.80;;
46731;SDS011;32477;51.474;5.696;2022-12-16T18:43:33;82.72;;;33.50;;